Time;durP1;ratioP1;P1;durP2;ratioP2;P2;SDS_P1;SDS_P2;PMS_P1;PMS_P2;Temp;Humidity;BMP_temperature;BMP_pressure;BME280_temperature;BME280_humidity;BME280_pressure;Samples;Min_cycle;Max_cycle;Signal;HPM_P1;HPM_P2
2021/07/02 00:01:48;;;;;;;;;;;;;;;28.56;47.41;99855.56;1680662;84;20184;-78
2021/07/02 00:04:14;;;;;;;;;;;;;;;28.58;47.41;99853.91;1681202;85;20222;-78
2021/07/02 00:06:40;;;;;;;;;;;;;;;28.58;47.41;99848.41;1680426;85;20271;-78
2021/07/02 00:09:06;;;;;;;;;;;;;;;28.57;47.41;99851.72;1680282;85;20209;-79
2021/07/02 00:11:32;;;;;;;;;;;;;;;28.54;47.43;99850.36;1680171;85;20183;-79
2021/07/02 00:13:58;;;;;;;;;;;;;;;28.52;47.40;99842.10;1680240;85;20183;-79
2021/07/02 00:16:24;;;;;;;;;;;;;;;28.50;47.36;99835.52;1680334;85;20286;-78
2021/07/02 00:18:50;;;;;;;;;;;;;;;28.49;47.36;99836.64;1680018;85;20212;-79
2021/07/02 00:21:16;;;;;;;;;;;;;;;28.47;47.29;99832.52;1680273;85;20239;-78
2021/07/02 00:23:43;;;;;;;;;;;;;;;28.45;47.40;99825.94;1679982;85;20193;-78
2021/07/02 00:26:09;;;;;;;;;;;;;;;28.42;47.23;99818.80;1679933;85;20425;-79
2021/07/02 00:28:37;;;;;;;;;;;;;;;28.40;47.29;99820.48;1679855;85;20181;-79
2021/07/02 00:31:03;;;;;;;;;;;;;;;28.37;47.38;99823.81;1680001;84;20184;-78
2021/07/02 00:33:29;;;;;;;;;;;;;;;28.34;47.43;99814.71;1680057;85;20207;-79
2021/07/02 00:35:56;;;;;;;;;;;;;;;28.31;47.48;99812.56;1679911;85;20230;-79
2021/07/02 00:38:22;;;;;;;;;;;;;;;28.30;47.62;99817.25;1655232;85;20181;-79
2021/07/02 00:40:48;;;;;;;;;;;;;;;28.27;47.70;99817.83;1679271;85;20179;-79
2021/07/02 00:43:14;;;;;;;;;;;;;;;28.22;47.82;99814.31;1680130;85;20458;-79
2021/07/02 00:45:40;;;;;;;;;;;;;;;28.21;47.68;99819.00;1680392;85;20235;-79
2021/07/02 00:48:06;;;;;;;;;;;;;;;28.21;47.73;99822.31;1680695;85;20164;-79
2021/07/02 00:50:32;;;;;;;;;;;;;;;28.20;47.68;99815.95;1680994;85;20181;-78
2021/07/02 00:52:58;;;;;;;;;;;;;;;28.18;47.69;99814.06;1681072;85;20181;-78
2021/07/02 00:55:25;;;;;;;;;;;;;;;28.15;47.75;99807.75;1681324;85;20127;-78
2021/07/02 00:57:52;;;;;;;;;;;;;;;28.13;47.79;99813.30;1680630;85;20176;-79
2021/07/02 01:00:19;;;;;;;;;;;;;;;28.11;47.82;99816.88;1656900;85;20160;-79
2021/07/02 01:02:45;;;;;;;;;;;;;;;28.08;47.85;99819.67;1681290;85;20196;-79
2021/07/02 01:05:13;;;;;;;;;;;;;;;28.08;47.88;99816.92;1681164;85;20184;-79
2021/07/02 01:07:41;;;;;;;;;;;;;;;28.06;47.94;99810.87;1680329;85;20176;-79
2021/07/02 01:10:09;;;;;;;;;;;;;;;28.04;47.96;99812.55;1680661;85;20185;-79
2021/07/02 01:12:35;;;;;;;;;;;;;;;28.06;47.85;99808.11;1656534;85;20390;-78
2021/07/02 01:15:02;;;;;;;;;;;;;;;28.09;47.82;99803.41;1679861;85;20204;-78
2021/07/02 01:17:29;;;;;;;;;;;;;;;28.10;47.75;99799.55;1679978;85;20189;-77
2021/07/02 01:19:55;;;;;;;;;;;;;;;28.10;47.37;99802.30;1679693;85;20192;-77
2021/07/02 01:22:26;;;;;;;;;;;;;;;28.12;47.34;99804.22;1678896;85;20184;-77
2021/07/02 01:24:55;;;;;;;;;;;;;;;28.14;47.39;99795.66;1679543;84;20200;-78
2021/07/02 01:27:21;;;;;;;;;;;;;;;28.14;47.37;99797.03;1679835;85;20124;-78
2021/07/02 01:29:48;;;;;;;;;;;;;;;28.15;47.44;99795.36;1679950;85;20217;-77
2021/07/02 01:32:16;;;;;;;;;;;;;;;28.12;47.60;99789.64;1680028;85;20205;-77
2021/07/02 01:34:42;;;;;;;;;;;;;;;28.10;47.68;99792.66;1679799;85;20523;-78
2021/07/02 01:37:09;;;;;;;;;;;;;;;28.03;47.86;99797.70;1679849;85;20180;-78
2021/07/02 01:39:40;;;;;;;;;;;;;;;27.94;48.00;99792.00;1680015;85;20172;-78
2021/07/02 01:42:08;;;;;;;;;;;;;;;27.91;48.13;99800.01;1680680;85;20177;-77
2021/07/02 01:44:36;;;;;;;;;;;;;;;27.88;48.17;99798.64;1680751;85;20197;-77
2021/07/02 01:47:03;;;;;;;;;;;;;;;27.86;48.13;99794.55;1680528;85;20164;-77
2021/07/02 01:49:29;;;;;;;;;;;;;;;27.87;48.11;99786.55;1680313;85;20192;-77
2021/07/02 01:51:55;;;;;;;;;;;;;;;27.90;48.02;99792.87;1679252;85;20216;-80
2021/07/02 01:54:22;;;;;;;;;;;;;;;27.92;48.05;99793.39;1678715;85;20227;-80
2021/07/02 01:56:49;;;;;;;;;;;;;;;27.93;48.02;99788.14;1679341;85;20184;-80
2021/07/02 01:59:18;;;;;;;;;;;;;;;27.93;48.00;99793.64;1678264;85;20235;-77
2021/07/02 02:01:47;;;;;;;;;;;;;;;27.92;48.02;99796.14;1678039;85;20501;-77
2021/07/02 02:04:14;;;;;;;;;;;;;;;27.90;48.02;99795.06;1678639;85;20224;-77
2021/07/02 02:06:40;;;;;;;;;;;;;;;27.89;48.03;99798.08;1679126;85;20254;-77
2021/07/02 02:09:06;;;;;;;;;;;;;;;27.88;48.04;99799.20;1679863;85;20445;-78
2021/07/02 02:11:33;;;;;;;;;;;;;;;27.87;48.06;99805.82;1680317;85;20156;-77
2021/07/02 02:14:01;;;;;;;;;;;;;;;27.88;48.08;99804.70;1679998;85;20163;-78
2021/07/02 02:16:28;;;;;;;;;;;;;;;27.88;48.05;99800.58;1679408;85;20199;-78
2021/07/02 02:18:57;;;;;;;;;;;;;;;27.89;48.08;99799.45;1678334;85;20219;-78
2021/07/02 02:21:24;;;;;;;;;;;;;;;27.87;48.12;99794.81;1678626;85;20192;-78
2021/07/02 02:23:51;;;;;;;;;;;;;;;27.85;48.15;99792.92;1678396;84;20219;-78
2021/07/02 02:26:20;;;;;;;;;;;;;;;27.84;48.16;99800.88;1678169;85;20227;-77
2021/07/02 02:28:46;;;;;;;;;;;;;;;27.84;48.19;99807.77;1678682;85;20504;-77
2021/07/02 02:31:12;;;;;;;;;;;;;;;27.84;48.18;99814.64;1678652;85;20219;-77
2021/07/02 02:33:39;;;;;;;;;;;;;;;27.83;48.17;99813.01;1679298;85;20235;-77
2021/07/02 02:36:07;;;;;;;;;;;;;;;27.83;48.19;99817.95;1675409;85;20212;-77
2021/07/02 02:38:34;;;;;;;;;;;;;;;27.84;48.19;99824.28;1678816;85;20204;-78
2021/07/02 02:41:00;;;;;;;;;;;;;;;27.86;48.21;99823.45;1678698;85;20187;-77
2021/07/02 02:43:26;;;;;;;;;;;;;;;27.88;48.04;99817.91;1678112;85;20174;-77
2021/07/02 02:45:52;;;;;;;;;;;;;;;27.90;47.96;99819.83;1678182;85;20215;-77
2021/07/02 02:48:19;;;;;;;;;;;;;;;27.94;47.61;99835.23;1678449;85;20202;-77
2021/07/02 02:50:46;;;;;;;;;;;;;;;27.95;47.57;99843.74;1677840;85;20183;-77
2021/07/02 02:53:13;;;;;;;;;;;;;;;27.97;47.47;99842.33;1678772;85;20179;-77
2021/07/02 02:55:39;;;;;;;;;;;;;;;28.00;47.19;99847.83;1678981;85;20118;-77
2021/07/02 02:58:05;;;;;;;;;;;;;;;28.00;47.21;99852.77;1665761;85;20171;-77
2021/07/02 03:00:32;;;;;;;;;;;;;;;28.00;47.22;99854.15;1679823;85;20377;-77
2021/07/02 03:02:58;;;;;;;;;;;;;;;28.02;47.20;99864.86;1680059;85;20150;-77
2021/07/02 03:05:25;;;;;;;;;;;;;;;28.01;47.34;99864.05;1680047;85;20147;-77
2021/07/02 03:07:55;;;;;;;;;;;;;;;28.00;47.17;99857.46;1680015;85;20147;-77
2021/07/02 03:10:23;;;;;;;;;;;;;;;27.99;46.99;99859.95;1679158;85;20177;-77
2021/07/02 03:12:51;;;;;;;;;;;;;;;27.98;46.89;99865.17;1679304;85;20250;-77
2021/07/02 03:15:17;;;;;;;;;;;;;;;27.96;46.83;99862.71;1679227;85;20184;-77
2021/07/02 03:17:44;;;;;;;;;;;;;;;27.95;46.74;99858.88;1679221;85;20465;-77
2021/07/02 03:20:11;;;;;;;;;;;;;;;27.96;46.90;99863.27;1679074;85;20502;-77
2021/07/02 03:22:38;;;;;;;;;;;;;;;27.91;47.08;99853.69;1679414;85;20177;-77
2021/07/02 03:25:05;;;;;;;;;;;;;;;27.89;46.97;99860.02;1679418;85;20184;-77
2021/07/02 03:27:32;;;;;;;;;;;;;;;27.93;46.93;99863.28;1679223;85;20184;-77
2021/07/02 03:29:58;;;;;;;;;;;;;;;27.94;46.95;99864.13;1679562;85;20270;-77
2021/07/02 03:32:25;;;;;;;;;;;;;;;27.91;46.98;99857.25;1679294;85;20172;-77
2021/07/02 03:34:52;;;;;;;;;;;;;;;27.92;46.78;99857.52;1679288;85;20209;-77
2021/07/02 03:37:20;;;;;;;;;;;;;;;27.92;46.83;99856.14;1678759;85;20236;-77
2021/07/02 03:39:48;;;;;;;;;;;;;;;27.91;46.88;99845.42;1679023;85;20184;-77
2021/07/02 03:42:15;;;;;;;;;;;;;;;27.88;46.94;99843.23;1677919;85;20204;-76
2021/07/02 03:44:41;;;;;;;;;;;;;;;27.86;47.05;99841.34;1678518;85;20205;-76
2021/07/02 03:47:07;;;;;;;;;;;;;;;27.86;47.24;99837.22;1678184;85;20184;-78
2021/07/02 03:49:34;;;;;;;;;;;;;;;27.86;47.48;99833.91;1678060;85;20252;-77
2021/07/02 03:52:00;;;;;;;;;;;;;;;27.87;47.69;99838.85;1677463;85;20623;-77
2021/07/02 03:54:26;;;;;;;;;;;;;;;27.87;47.74;99831.97;1677409;85;20211;-77
2021/07/02 03:57:12;;;;;;;;;;;;;;;27.88;47.86;99834.42;1689930;85;22114;-77
2021/07/02 03:59:44;;;;;;;;;;;;;;;27.89;47.69;99839.38;1664946;84;20216;-78
2021/07/02 04:02:11;;;;;;;;;;;;;;;27.91;47.96;99844.05;1665316;86;20220;-77
2021/07/02 04:04:38;;;;;;;;;;;;;;;27.85;47.59;99832.83;1690106;85;20182;-78
2021/07/02 04:07:04;;;;;;;;;;;;;;;27.88;47.50;99841.30;1691570;85;20144;-78
2021/07/02 04:09:31;;;;;;;;;;;;;;;27.89;47.82;99837.99;1647877;86;20467;-77
2021/07/02 04:11:57;;;;;;;;;;;;;;;27.89;47.90;99836.09;1667285;86;20206;-77
2021/07/02 04:14:26;;;;;;;;;;;;;;;27.90;47.95;99837.73;1691695;85;20136;-77
2021/07/02 04:16:52;;;;;;;;;;;;;;;27.92;48.09;99837.42;1670662;86;20146;-77
2021/07/02 04:19:18;;;;;;;;;;;;;;;27.94;48.14;99842.11;1667108;85;20176;-77
2021/07/02 04:21:44;;;;;;;;;;;;;;;28.00;48.17;99845.07;1691173;85;20191;-76
2021/07/02 04:24:10;;;;;;;;;;;;;;;28.08;47.97;99838.95;1687154;85;20197;-77
2021/07/02 04:26:36;;;;;;;;;;;;;;;28.16;48.01;99842.98;1662730;86;20821;-77
2021/07/02 04:29:02;;;;;;;;;;;;;;;28.25;47.87;99837.97;1688471;85;20206;-77
2021/07/02 04:31:28;;;;;;;;;;;;;;;28.37;47.94;99842.28;1690190;85;20190;-77
2021/07/02 04:33:54;;;;;;;;;;;;;;;28.44;47.77;99835.88;1650230;86;20609;-77
2021/07/02 04:36:21;;;;;;;;;;;;;;;28.50;47.57;99838.83;1676557;85;20201;-77
2021/07/02 04:38:47;;;;;;;;;;;;;;;28.58;47.62;99834.63;1650100;87;20241;-78
2021/07/02 04:41:12;;;;;;;;;;;;;;;28.65;47.42;99837.83;1647471;87;20178;-77
2021/07/02 04:43:39;;;;;;;;;;;;;;;28.70;47.47;99833.64;1674682;85;20211;-78
2021/07/02 04:46:05;;;;;;;;;;;;;;;28.74;47.37;99838.83;1676714;85;20238;-77
2021/07/02 04:48:31;;;;;;;;;;;;;;;28.78;47.43;99845.40;1689092;85;20462;-78
2021/07/02 04:50:57;;;;;;;;;;;;;;;28.81;47.25;99845.64;1711045;83;20224;-77
2021/07/02 04:53:23;;;;;;;;;;;;;;;28.86;47.41;99845.31;1682817;84;20221;-77
2021/07/02 04:55:49;;;;;;;;;;;;;;;28.90;47.48;99847.75;1675044;85;20843;-77
2021/07/02 04:58:17;;;;;;;;;;;;;;;28.96;47.42;99844.66;1676093;85;20203;-77
2021/07/02 05:00:43;;;;;;;;;;;;;;;29.02;47.47;99845.41;1676148;85;20201;-77
2021/07/02 05:03:09;;;;;;;;;;;;;;;29.08;47.36;99842.05;1651587;85;20184;-78
2021/07/02 05:05:35;;;;;;;;;;;;;;;29.15;47.14;99844.67;1676531;84;20455;-77
2021/07/02 05:08:01;;;;;;;;;;;;;;;29.24;47.19;99844.84;1676621;85;20141;-77
2021/07/02 05:10:28;;;;;;;;;;;;;;;29.24;47.25;99847.03;1660018;86;20443;-77
2021/07/02 05:12:53;;;;;;;;;;;;;;;29.24;47.22;99845.66;1675854;85;20143;-77
2021/07/02 05:15:20;;;;;;;;;;;;;;;29.28;47.35;99836.23;1666605;86;20154;-77
2021/07/02 05:17:46;;;;;;;;;;;;;;;29.36;47.42;99837.52;1668496;84;20756;-77
2021/07/02 05:20:13;;;;;;;;;;;;;;;29.39;47.32;99838.28;1660348;86;20192;-77
2021/07/02 05:22:39;;;;;;;;;;;;;;;29.47;47.15;99841.19;1683670;85;20151;-77
2021/07/02 05:25:06;;;;;;;;;;;;;;;29.52;47.14;99845.28;1666172;83;20189;-76
2021/07/02 05:27:33;;;;;;;;;;;;;;;29.55;47.00;99843.31;1672315;85;20490;-78
2021/07/02 05:29:59;;;;;;;;;;;;;;;29.58;46.89;99846.61;1661494;84;20211;-78
2021/07/02 05:32:25;;;;;;;;;;;;;;;29.64;46.95;99847.59;1675019;84;20197;-79
2021/07/02 05:34:52;;;;;;;;;;;;;;;29.71;46.83;99849.43;1692043;84;20867;-78
2021/07/02 05:37:18;;;;;;;;;;;;;;;29.74;46.62;99847.99;1672589;84;20133;-79
2021/07/02 05:39:50;;;;;;;;;;;;;;;29.75;46.73;99850.47;1674162;84;20231;-78
2021/07/02 05:42:21;;;;;;;;;;;;;;;29.82;46.53;99856.98;1682074;84;20227;-78
2021/07/02 05:44:44;;;;;;;;;;;;;;;29.89;46.58;99848.30;1674342;84;20193;-79
2021/07/02 05:47:10;;;;;;;;;;;;;;;29.98;46.55;99850.66;1676629;84;20227;-77
2021/07/02 05:49:35;;;;;;;;;;;;;;;30.07;46.60;99851.05;1675035;85;20171;-77
2021/07/02 05:52:05;;;;;;;;;;;;;;;30.15;46.56;99853.69;1676931;84;20221;-77
2021/07/02 05:54:31;;;;;;;;;;;;;;;30.24;46.57;99857.39;1673866;84;20236;-77
2021/07/02 05:56:57;;;;;;;;;;;;;;;30.33;46.26;99852.80;1674678;84;20203;-78
2021/07/02 05:59:23;;;;;;;;;;;;;;;30.41;46.02;99857.38;1687739;84;20448;-78
2021/07/02 06:01:49;;;;;;;;;;;;;;;30.45;46.06;99857.03;1685283;84;20141;-77
2021/07/02 06:04:19;;;;;;;;;;;;;;;30.50;46.09;99856.93;1676347;84;20563;-77
2021/07/02 06:09:48;;;;;;;;;;;;;;;30.67;45.74;99853.58;1613243;84;20154;-77
2021/07/02 06:12:14;;;;;;;;;;;;;;;30.76;45.64;99853.15;1671316;84;20159;-77
2021/07/02 06:14:41;;;;;;;;;;;;;;;30.87;45.54;99855.13;1647579;85;20485;-78
2021/07/02 06:17:07;;;;;;;;;;;;;;;30.98;45.40;99858.77;1678593;84;20194;-77
2021/07/02 06:19:33;;;;;;;;;;;;;;;31.12;45.23;99853.80;1675518;84;21057;-77
2021/07/02 06:21:59;;;;;;;;;;;;;;;31.28;45.00;99854.54;1678112;84;20600;-78
2021/07/02 06:24:25;;;;;;;;;;;;;;;31.46;44.35;99856.09;1676363;84;20199;-78
2021/07/02 06:26:52;;;;;;;;;;;;;;;31.63;43.95;99860.97;1702797;79;20136;-80
2021/07/02 06:29:18;;;;;;;;;;;;;;;31.80;43.54;99867.47;1712409;79;21059;-78
2021/07/02 06:31:44;;;;;;;;;;;;;;;31.98;43.06;99857.37;1734839;81;20630;-78
2021/07/02 06:34:10;;;;;;;;;;;;;;;32.15;42.83;99859.41;1733058;81;20142;-78
2021/07/02 06:36:52;;;;;;;;;;;;;;;32.35;42.97;99865.58;1735355;81;20164;-79
2021/07/02 06:43:24;;;;;;;;;;;;;;;;;;;;;
2021/07/02 06:46:13;;;;;;;;;;;;;;;32.86;42.39;99869.74;1661279;84;20230;-79
2021/07/02 06:52:44;;;;;;;;;;;;;;;;;;;;;
2021/07/02 07:00:02;;;;;;;;;;;;;;;;;;;;;
2021/07/02 07:10:05;;;;;;;;;;;;;;;33.61;39.77;99831.70;1496882;95;20283;-78
2021/07/02 07:12:31;;;;;;;;;;;;;;;33.60;40.30;99828.11;1599066;87;20600;-78
2021/07/02 07:14:58;;;;;;;;;;;;;;;33.75;40.04;99827.63;1569396;88;20241;-77
2021/07/02 07:17:24;;;;;;;;;;;;;;;33.94;39.79;99829.23;1593472;88;20152;-77
2021/07/02 07:19:50;;;;;;;;;;;;;;;34.15;39.63;99824.62;1667442;83;20450;-77
2021/07/02 07:22:17;;;;;;;;;;;;;;;34.39;39.22;99837.16;1710333;82;20492;-77
2021/07/02 07:24:44;;;;;;;;;;;;;;;34.48;37.90;99831.02;1701366;83;20176;-78
2021/07/02 07:27:11;;;;;;;;;;;;;;;34.53;37.90;99835.01;1735294;81;20768;-78
2021/07/02 07:29:37;;;;;;;;;;;;;;;34.62;38.00;99829.41;1732981;81;20536;-78
2021/07/02 07:32:03;;;;;;;;;;;;;;;34.67;37.29;99827.83;1733164;81;20153;-77
2021/07/02 07:34:45;;;;;;;;;;;;;;;34.71;37.26;99823.23;1737565;81;20183;-78
2021/07/02 07:37:09;;;;;;;;;;;;;;;34.85;37.17;99833.54;1732298;81;20138;-78
2021/07/02 07:39:34;;;;;;;;;;;;;;;35.02;36.92;99838.20;1734173;81;20513;-78
2021/07/02 07:42:00;;;;;;;;;;;;;;;35.21;36.61;99834.41;1734445;81;20161;-78
2021/07/02 07:44:26;;;;;;;;;;;;;;;35.38;34.93;99837.62;1729845;81;20196;-78
2021/07/02 07:46:53;;;;;;;;;;;;;;;35.45;34.71;99830.12;1737029;81;20723;-78
2021/07/02 07:49:19;;;;;;;;;;;;;;;35.54;34.37;99837.88;1731262;81;20181;-78
2021/07/02 07:54:21;;;;;;;;;;;;;;;35.77;34.30;99836.34;1729113;81;20234;-77
2021/07/02 07:56:50;;;;;;;;;;;;;;;35.89;34.10;99831.41;1728469;81;20173;-76
2021/07/02 07:59:18;;;;;;;;;;;;;;;36.00;33.97;99838.78;1729432;81;20481;-79
2021/07/02 08:01:45;;;;;;;;;;;;;;;36.01;34.34;99844.58;1732877;81;20652;-77
2021/07/02 08:04:18;;;;;;;;;;;;;;;35.94;34.71;99846.52;1702772;83;20236;-77
2021/07/02 08:06:45;;;;;;;;;;;;;;;35.88;35.08;99845.08;1742000;81;20163;-77
2021/07/02 08:09:12;;;;;;;;;;;;;;;35.85;35.08;99842.19;1704557;83;20223;-78
2021/07/02 08:11:38;;;;;;;;;;;;;;;35.87;34.23;99838.47;1736729;81;20269;-78
2021/07/02 08:14:04;;;;;;;;;;;;;;;35.93;33.84;99845.45;1728960;81;20826;-76
2021/07/02 08:16:30;;;;;;;;;;;;;;;35.97;35.03;99843.05;1731289;81;20138;-78
2021/07/02 08:18:57;;;;;;;;;;;;;;;35.95;36.22;99849.56;1735541;81;20145;-78
2021/07/02 08:21:25;;;;;;;;;;;;;;;35.92;36.76;99850.80;1737560;81;20178;-77
2021/07/02 08:23:52;;;;;;;;;;;;;;;35.90;36.83;99849.75;1733322;81;20184;-79
2021/07/02 08:26:19;;;;;;;;;;;;;;;35.91;36.79;99856.95;1706903;82;20150;-78
2021/07/02 08:31:32;;;;;;;;;;;;;;;35.86;36.86;99855.77;1741844;81;20153;-77
2021/07/02 08:33:59;;;;;;;;;;;;;;;35.83;37.12;99850.30;1737744;81;20137;-78
2021/07/02 08:36:27;;;;;;;;;;;;;;;35.81;35.85;99847.05;1738636;81;20163;-78
2021/07/02 08:38:57;;;;;;;;;;;;;;;35.80;35.75;99846.00;1737705;81;20176;-78
2021/07/02 08:41:23;;;;;;;;;;;;;;;35.78;35.85;99852.48;1734126;81;20183;-79
2021/07/02 08:43:49;;;;;;;;;;;;;;;35.78;35.46;99853.30;1704848;82;20420;-77
2021/07/02 08:46:18;;;;;;;;;;;;;;;35.80;36.53;99844.03;1732507;81;20187;-78
2021/07/02 08:48:45;;;;;;;;;;;;;;;35.80;37.25;99845.42;1732868;81;20191;-77
2021/07/02 08:51:11;;;;;;;;;;;;;;;35.77;37.06;99844.70;1729607;81;20201;-78
2021/07/02 08:53:38;;;;;;;;;;;;;;;35.70;37.17;99841.67;1729401;81;20175;-76
2021/07/02 08:56:06;;;;;;;;;;;;;;;35.66;37.22;99837.12;1728986;81;20451;-76
2021/07/02 08:58:32;;;;;;;;;;;;;;;35.57;37.41;99829.66;1729123;81;20155;-77
2021/07/02 09:01:08;;;;;;;;;;;;;;;35.49;37.61;99833.90;1734152;81;20643;-77
2021/07/02 09:03:36;;;;;;;;;;;;;;;35.38;37.77;99832.05;1728538;81;20168;-75
2021/07/02 09:06:18;;;;;;;;;;;;;;;35.31;37.87;99835.97;1704502;82;20221;-77
2021/07/02 09:09:04;;;;;;;;;;;;;;;35.23;37.88;99839.05;1707202;82;20182;-78
2021/07/02 09:11:35;;;;;;;;;;;;;;;35.11;38.08;99840.34;1712764;81;20152;-79
2021/07/02 09:13:59;;;;;;;;;;;;;;;35.01;38.26;99840.75;1731778;81;20151;-77
2021/07/02 09:16:37;;;;;;;;;;;;;;;34.96;38.46;99844.55;1734603;81;20167;-77
2021/07/02 09:19:20;;;;;;;;;;;;;;;34.87;38.43;99833.20;1698810;82;20174;-77
2021/07/02 09:21:47;;;;;;;;;;;;;;;34.78;38.39;99835.44;1698416;83;20173;-77
2021/07/02 09:24:39;;;;;;;;;;;;;;;34.74;38.34;99832.27;1698420;82;20459;-77
2021/07/02 09:27:11;;;;;;;;;;;;;;;34.71;38.32;99837.14;1729579;81;20136;-77
2021/07/02 09:29:39;;;;;;;;;;;;;;;34.68;38.22;99825.28;1727925;81;20685;-77
2021/07/02 09:32:05;;;;;;;;;;;;;;;34.65;38.58;99828.72;1730816;81;20178;-79
2021/07/02 09:34:55;;;;;;;;;;;;;;;34.61;38.70;99821.61;1723005;81;20115;-76
2021/07/02 09:37:26;;;;;;;;;;;;;;;34.59;38.74;99819.75;1731839;81;20177;-78
2021/07/02 09:39:49;;;;;;;;;;;;;;;34.58;38.50;99829.25;1733406;81;20179;-78
2021/07/02 09:42:27;;;;;;;;;;;;;;;34.53;38.44;99823.88;1707883;83;20220;-78
2021/07/02 09:45:13;;;;;;;;;;;;;;;34.45;38.52;99823.31;1699176;83;20407;-78
2021/07/02 09:47:40;;;;;;;;;;;;;;;34.37;38.84;99819.41;1699967;83;20192;-78
2021/07/02 09:50:12;;;;;;;;;;;;;;;34.29;38.84;99818.30;1738868;81;20213;-78
2021/07/02 09:52:47;;;;;;;;;;;;;;;34.22;38.98;99812.42;1729045;81;20513;-78
2021/07/02 09:55:15;;;;;;;;;;;;;;;34.15;38.71;99809.91;1727218;81;20164;-77
2021/07/02 09:57:47;;;;;;;;;;;;;;;34.06;38.69;99816.88;1732580;81;20153;-79
2021/07/02 10:00:16;;;;;;;;;;;;;;;33.98;38.88;99817.73;1732197;81;20432;-79
2021/07/02 10:02:56;;;;;;;;;;;;;;;33.87;38.92;99813.05;1732087;81;20173;-78
2021/07/02 10:05:20;;;;;;;;;;;;;;;33.77;39.38;99805.88;1736370;81;20476;-78
2021/07/02 10:08:02;;;;;;;;;;;;;;;33.67;39.76;99809.00;1733345;81;20159;-79
2021/07/02 10:10:31;;;;;;;;;;;;;;;33.64;39.90;99810.23;1734622;81;20586;-79
2021/07/02 10:12:58;;;;;;;;;;;;;;;33.61;39.97;99815.03;1736047;81;20179;-78
2021/07/02 10:15:24;;;;;;;;;;;;;;;33.56;39.94;99816.02;1702464;83;20175;-79
2021/07/02 10:17:56;;;;;;;;;;;;;;;33.47;39.98;99801.32;1730957;81;20145;-78
2021/07/02 10:20:22;;;;;;;;;;;;;;;33.43;40.55;99807.25;1733231;81;20196;-77
2021/07/02 10:22:49;;;;;;;;;;;;;;;33.40;41.29;99806.53;1730948;81;20168;-77
2021/07/02 10:25:18;;;;;;;;;;;;;;;33.40;41.33;99800.98;1732557;81;20148;-79
2021/07/02 10:27:49;;;;;;;;;;;;;;;33.38;41.42;99803.25;1736175;81;20181;-79
2021/07/02 10:30:16;;;;;;;;;;;;;;;33.37;41.18;99807.18;1728236;81;20453;-79
2021/07/02 10:32:45;;;;;;;;;;;;;;;33.33;41.59;99810.59;1731976;81;20172;-78
2021/07/02 10:35:15;;;;;;;;;;;;;;;33.31;41.95;99810.69;1732525;81;20160;-78
2021/07/02 10:37:49;;;;;;;;;;;;;;;33.27;41.69;99804.97;1730901;81;20192;-78
2021/07/02 10:40:29;;;;;;;;;;;;;;;33.25;41.42;99798.13;1730234;81;20199;-77
2021/07/02 10:43:19;;;;;;;;;;;;;;;33.22;41.44;99800.97;1734300;81;20175;-77
2021/07/02 10:46:09;;;;;;;;;;;;;;;33.19;41.83;99800.80;1728887;81;20192;-77
2021/07/02 10:48:49;;;;;;;;;;;;;;;33.16;41.78;99806.45;1723931;81;20167;-78
2021/07/02 10:51:42;;;;;;;;;;;;;;;33.13;42.05;99809.86;1725755;81;20205;-78
2021/07/02 10:54:23;;;;;;;;;;;;;;;33.08;42.56;99805.86;1727748;81;20162;-79
2021/07/02 10:57:01;;;;;;;;;;;;;;;33.04;42.50;99802.09;1730455;81;20165;-79
2021/07/02 10:59:46;;;;;;;;;;;;;;;33.00;42.19;99799.72;1730931;81;20168;-77
2021/07/02 11:02:26;;;;;;;;;;;;;;;32.96;42.40;99807.86;1719302;81;20218;-78
2021/07/02 11:04:53;;;;;;;;;;;;;;;32.89;42.57;99799.19;1708039;81;20132;-78
2021/07/02 11:07:26;;;;;;;;;;;;;;;32.85;42.67;99803.74;1729117;81;20175;-79
2021/07/02 11:10:00;;;;;;;;;;;;;;;32.83;43.02;99798.50;1738128;81;20827;-79
2021/07/02 11:12:40;;;;;;;;;;;;;;;32.80;43.07;99805.28;1735480;81;20144;-78
2021/07/02 11:15:18;;;;;;;;;;;;;;;32.77;43.07;99805.34;1738300;81;20216;-78
2021/07/02 11:17:50;;;;;;;;;;;;;;;32.74;42.93;99810.71;1725135;81;20209;-77
2021/07/02 11:20:24;;;;;;;;;;;;;;;32.71;42.94;99805.25;1727521;81;20169;-77
2021/07/02 11:23:00;;;;;;;;;;;;;;;32.69;43.02;99797.81;1729062;81;20257;-76
2021/07/02 11:25:43;;;;;;;;;;;;;;;32.68;43.15;99794.80;1732983;81;20160;-78
2021/07/02 11:28:20;;;;;;;;;;;;;;;32.63;42.93;99795.52;1736205;81;20144;-77
2021/07/02 11:30:47;;;;;;;;;;;;;;;32.66;42.90;99794.31;1733297;81;20134;-77
2021/07/02 11:33:18;;;;;;;;;;;;;;;32.65;42.78;99792.66;1716588;81;20191;-77
2021/07/02 11:35:49;;;;;;;;;;;;;;;32.64;42.99;99797.96;1735123;81;20190;-77
2021/07/02 11:38:18;;;;;;;;;;;;;;;32.63;42.88;99789.41;1724820;81;20177;-78
2021/07/02 11:40:53;;;;;;;;;;;;;;;32.61;42.76;99793.63;1736687;81;20153;-77
2021/07/02 11:43:27;;;;;;;;;;;;;;;32.58;42.81;99795.09;1705876;83;20141;-77
2021/07/02 11:45:52;;;;;;;;;;;;;;;32.56;42.83;99786.27;1703672;82;20155;-77
2021/07/02 11:48:22;;;;;;;;;;;;;;;32.55;42.86;99787.41;1702816;82;20535;-77
2021/07/02 11:50:52;;;;;;;;;;;;;;;32.51;43.25;99783.07;1728642;81;20160;-77
2021/07/02 11:53:39;;;;;;;;;;;;;;;32.50;43.04;99782.83;1705756;82;20190;-77
2021/07/02 11:56:08;;;;;;;;;;;;;;;32.48;43.24;99786.50;1731646;81;20248;-77
2021/07/02 11:58:41;;;;;;;;;;;;;;;32.44;43.29;99785.51;1758690;79;20156;-77
2021/07/02 12:01:18;;;;;;;;;;;;;;;32.43;43.36;99788.04;1737701;81;20176;-77
2021/07/02 12:03:50;;;;;;;;;;;;;;;32.40;43.47;99789.24;1735504;81;20554;-77
2021/07/02 12:06:26;;;;;;;;;;;;;;;32.39;43.57;99787.05;1731164;81;20159;-76
2021/07/02 12:09:16;;;;;;;;;;;;;;;32.38;43.49;99780.41;1761320;80;20183;-76
2021/07/02 12:11:50;;;;;;;;;;;;;;;32.35;43.56;99783.81;1710431;82;20465;-77
2021/07/02 12:14:26;;;;;;;;;;;;;;;32.31;43.57;99780.28;1728081;81;20183;-76
2021/07/02 12:16:55;;;;;;;;;;;;;;;32.31;43.77;99782.24;1726590;81;20473;-75
2021/07/02 12:19:23;;;;;;;;;;;;;;;32.31;43.86;99780.28;1729875;81;20201;-77
2021/07/02 12:22:06;;;;;;;;;;;;;;;32.33;43.92;99777.19;1726110;81;20190;-78
2021/07/02 12:24:44;;;;;;;;;;;;;;;32.32;43.83;99781.09;1727641;81;20181;-77
2021/07/02 12:27:13;;;;;;;;;;;;;;;32.31;43.90;99774.73;1725316;81;20194;-78
2021/07/02 12:29:58;;;;;;;;;;;;;;;;;;;;;
2021/07/02 12:32:18;;;;;;;;;;;;;;;32.28;44.20;99767.05;1720350;81;20161;-77
2021/07/02 12:34:49;;;;;;;;;;;;;;;32.26;44.12;99772.12;1696294;82;20182;-77
2021/07/02 12:37:51;;;;;;;;;;;;;;;32.24;44.10;99769.41;1727473;81;20125;-77
2021/07/02 12:40:19;;;;;;;;;;;;;;;32.22;44.04;99769.73;1729188;81;21073;-77
2021/07/02 12:42:47;;;;;;;;;;;;;;;32.19;44.21;99759.27;1736363;81;20142;-77
2021/07/02 12:45:15;;;;;;;;;;;;;;;32.20;44.09;99763.67;1729580;81;20127;-77
2021/07/02 12:47:41;;;;;;;;;;;;;;;32.24;43.83;99768.02;1729817;81;20142;-76
2021/07/02 12:50:12;;;;;;;;;;;;;;;32.22;43.81;99762.80;1731929;81;20189;-77
2021/07/02 12:55:20;;;;;;;;;;;;;;;32.25;43.62;99755.25;1735694;81;20160;-77
2021/07/02 12:57:54;;;;;;;;;;;;;;;32.28;43.65;99760.70;1738824;81;20173;-77
2021/07/02 13:00:24;;;;;;;;;;;;;;;32.29;43.35;99760.40;1705724;83;20105;-77
2021/07/02 13:02:53;;;;;;;;;;;;;;;32.31;42.83;99760.07;1707560;83;20151;-78
2021/07/02 13:05:23;;;;;;;;;;;;;;;32.31;42.67;99755.91;1716825;82;20208;-78
2021/07/02 13:08:09;;;;;;;;;;;;;;;32.30;42.78;99755.09;1736911;81;20561;-77
2021/07/02 13:10:39;;;;;;;;;;;;;;;32.28;42.83;99753.20;1739984;81;20185;-79
2021/07/02 13:13:09;;;;;;;;;;;;;;;32.26;42.90;99749.13;1740450;81;20152;-78
2021/07/02 13:15:43;;;;;;;;;;;;;;;32.22;42.79;99747.56;1738043;81;20198;-78
2021/07/02 13:18:19;;;;;;;;;;;;;;;32.22;42.76;99745.36;1730672;81;20820;-77
2021/07/02 13:20:48;;;;;;;;;;;;;;;32.20;42.63;99744.28;1724471;81;20178;-76
2021/07/02 13:23:19;;;;;;;;;;;;;;;32.18;42.88;99739.64;1726905;81;20161;-77
2021/07/02 13:26:03;;;;;;;;;;;;;;;32.16;42.80;99736.38;1719695;81;20185;-78
2021/07/02 13:28:31;;;;;;;;;;;;;;;32.15;42.79;99729.75;1728439;81;20173;-77
2021/07/02 13:30:57;;;;;;;;;;;;;;;32.13;42.60;99730.08;1731230;82;20170;-77
2021/07/02 13:33:23;;;;;;;;;;;;;;;32.05;42.58;99731.67;1728859;82;20188;-77